createdAt,value
2023-09-11T00:02:06.085Z,101531.28
2023-09-11T00:04:33.249Z,101525.84
2023-09-11T00:07:02.838Z,101529.41
2023-09-11T00:09:30.305Z,101521.56
2023-09-11T00:11:58.984Z,101530.50
2023-09-11T00:14:27.429Z,101520.84
2023-09-11T00:16:54.872Z,101525.13
2023-09-11T00:19:22.095Z,101515.47
2023-09-11T00:21:49.367Z,101514.47
2023-09-11T00:24:16.621Z,101516.28
2023-09-11T00:26:43.816Z,101518.91
2023-09-11T00:32:15.226Z,101518.91
2023-09-11T00:34:42.621Z,101520.63
2023-09-11T00:37:09.777Z,101516.34
2023-09-11T00:39:40.024Z,101506.75
2023-09-11T00:42:07.418Z,101509.44
2023-09-11T00:44:35.894Z,101507.66
2023-09-11T00:47:03.573Z,101509.53
2023-09-11T00:49:31.509Z,101498.03
2023-09-11T00:51:58.836Z,101502.44
2023-09-11T00:54:27.652Z,101498.94
2023-09-11T00:56:55.426Z,101498.16
2023-09-11T00:59:22.612Z,101489.38
2023-09-11T01:01:50.672Z,101483.97
2023-09-11T01:04:18.167Z,101486.69
2023-09-11T01:06:48.120Z,101481.47
2023-09-11T01:09:15.389Z,101482.41
2023-09-11T01:11:42.517Z,101477.13
2023-09-11T01:14:09.701Z,101469.22
2023-09-11T01:17:15.022Z,101474.78
2023-09-11T01:19:53.845Z,101478.38
2023-09-11T01:22:39.781Z,101476.59
2023-09-11T01:25:13.319Z,101465.22
2023-09-11T01:28:18.321Z,101476.81
2023-09-11T01:30:47.696Z,101468.97
2023-09-11T01:33:15.618Z,101476.84
2023-09-11T01:35:42.967Z,101470.66
2023-09-11T01:38:10.501Z,101472.41
2023-09-11T01:40:45.327Z,101469.84
2023-09-11T01:43:15.208Z,101457.53
2023-09-11T01:45:43.387Z,101461.13
2023-09-11T01:48:12.483Z,101460.22
2023-09-11T01:50:41.939Z,101461.91
2023-09-11T01:53:09.900Z,101459.25
2023-09-11T01:55:37.979Z,101464.53
2023-09-11T01:58:05.226Z,101459.22
2023-09-11T02:00:36.051Z,101457.44
2023-09-11T02:03:03.420Z,101460.19
2023-09-11T02:05:30.859Z,101456.78
2023-09-11T02:07:58.429Z,101459.44
2023-09-11T02:10:25.610Z,101451.63
2023-09-11T02:12:53.060Z,101446.31
2023-09-11T02:15:23.543Z,101445.53
2023-09-11T02:17:50.874Z,101449.84
2023-09-11T02:20:19.671Z,101449.81
2023-09-11T02:22:47.063Z,101441.94
2023-09-11T02:25:14.456Z,101444.69
2023-09-11T02:27:41.713Z,101450.03
2023-09-11T02:30:10.465Z,101437.84
2023-09-11T02:32:38.445Z,101440.41
2023-09-11T02:35:05.980Z,101434.16
2023-09-11T02:37:33.354Z,101431.53
2023-09-11T02:40:01.289Z,101428.03
2023-09-11T02:42:28.578Z,101428.00
2023-09-11T02:44:55.681Z,101418.28
2023-09-11T02:47:23.023Z,101422.91
2023-09-11T02:49:50.309Z,101411.41
2023-09-11T02:52:17.551Z,101402.69
2023-09-11T02:54:44.730Z,101397.47
2023-09-11T02:57:11.993Z,101390.50
2023-09-11T02:59:39.632Z,101389.69
2023-09-11T03:02:07.209Z,101397.78
2023-09-11T03:04:34.411Z,101384.50
2023-09-11T03:07:01.784Z,101388.94
2023-09-11T03:09:29.210Z,101386.50
2023-09-11T03:11:57.670Z,101379.41
2023-09-11T03:14:24.995Z,101374.13
2023-09-11T03:16:53.223Z,101378.66
2023-09-11T03:19:20.375Z,101379.59
2023-09-11T03:21:47.569Z,101376.03
2023-09-11T03:24:15.122Z,101362.91
2023-09-11T03:26:42.452Z,101365.63
2023-09-11T03:29:10.770Z,101359.47
2023-09-11T03:31:38.050Z,101365.63
2023-09-11T03:34:05.640Z,101360.34
2023-09-11T03:36:34.121Z,101365.69
2023-09-11T03:39:01.289Z,101365.66
2023-09-11T03:41:29.004Z,101359.53
2023-09-11T03:43:56.356Z,101358.59
2023-09-11T03:46:24.324Z,101363.00
2023-09-11T03:48:51.498Z,101360.31
2023-09-11T03:51:20.193Z,101358.53
2023-09-11T03:53:47.846Z,101355.88
2023-09-11T03:56:21.318Z,101356.84
2023-09-11T03:58:49.550Z,101358.69
2023-09-11T04:01:18.619Z,101358.63
2023-09-11T04:03:46.350Z,101351.47
2023-09-11T04:06:13.655Z,101365.72
2023-09-11T04:08:40.873Z,101368.31
2023-09-11T04:11:08.127Z,101363.00
2023-09-11T04:13:35.486Z,101374.53
2023-09-11T04:16:02.939Z,101373.66
2023-09-11T04:18:30.965Z,101378.09
2023-09-11T04:21:05.676Z,101363.94
2023-09-11T04:23:36.061Z,101365.84
2023-09-11T04:26:03.842Z,101356.97
2023-09-11T04:28:31.287Z,101363.19
2023-09-11T04:30:58.453Z,101357.00
2023-09-11T04:33:26.121Z,101364.09
2023-09-11T04:35:53.924Z,101365.03
2023-09-11T04:38:21.547Z,101365.00
2023-09-11T04:40:48.921Z,101352.88
2023-09-11T04:43:16.380Z,101359.00
2023-09-11T04:45:43.804Z,101345.88
2023-09-11T04:48:11.433Z,101350.31
2023-09-11T04:50:38.870Z,101353.88
2023-09-11T04:53:06.239Z,101357.53
2023-09-11T04:55:33.593Z,101366.25
2023-09-11T04:58:00.911Z,101368.97
2023-09-11T05:00:28.251Z,101369.00
2023-09-11T05:02:55.796Z,101366.31
2023-09-11T05:05:23.192Z,101361.16
2023-09-11T05:07:51.429Z,101356.63
2023-09-11T05:10:19.772Z,101371.78
2023-09-11T05:12:48.215Z,101368.13
2023-09-11T05:15:15.732Z,101366.31
2023-09-11T05:17:43.012Z,101372.59
2023-09-11T05:20:11.412Z,101371.69
2023-09-11T05:22:39.773Z,101372.50
2023-09-11T05:25:07.298Z,101377.84
2023-09-11T05:27:34.423Z,101372.50
2023-09-11T05:30:01.586Z,101384.91
2023-09-11T05:32:28.731Z,101383.09
2023-09-11T05:34:56.013Z,101380.44
2023-09-11T05:37:23.206Z,101379.56
2023-09-11T05:39:50.417Z,101385.00
2023-09-11T05:42:17.498Z,101387.63
2023-09-11T05:44:45.168Z,101389.50
2023-09-11T05:47:12.537Z,101388.56
2023-09-11T05:49:39.779Z,101393.91
2023-09-11T05:52:08.110Z,101398.50
2023-09-11T05:54:35.422Z,101394.97
2023-09-11T05:57:04.003Z,101393.38
2023-09-11T05:59:31.252Z,101400.22
2023-09-11T06:01:58.498Z,101400.19
2023-09-11T06:04:25.782Z,101402.03
2023-09-11T06:06:52.928Z,101396.72
2023-09-11T06:09:20.148Z,101403.81
2023-09-11T06:11:47.345Z,101410.97
2023-09-11T06:14:14.585Z,101405.72
2023-09-11T06:16:43.114Z,101402.19
2023-09-11T06:19:10.481Z,101409.28
2023-09-11T06:21:37.801Z,101415.44
2023-09-11T06:24:08.387Z,101417.25
2023-09-11T06:26:41.064Z,101405.78
2023-09-11T06:29:08.385Z,101422.72
2023-09-11T06:31:36.622Z,101423.63
2023-09-11T06:34:03.921Z,101419.19
2023-09-11T06:36:31.026Z,101415.56
2023-09-11T06:38:58.424Z,101423.63
2023-09-11T06:41:25.687Z,101436.03
2023-09-11T06:43:54.530Z,101429.72
2023-09-11T06:46:25.414Z,101429.59
2023-09-11T06:48:52.773Z,101423.38
2023-09-11T06:51:19.977Z,101425.88
2023-09-11T06:53:47.374Z,101431.09
2023-09-11T06:56:14.616Z,101435.47
2023-09-11T06:58:43.679Z,101436.25
2023-09-11T07:01:10.973Z,101444.22
2023-09-11T07:03:38.357Z,101442.34
2023-09-11T07:06:05.701Z,101436.94
2023-09-11T07:08:33.099Z,101433.53
2023-09-11T07:11:00.305Z,101443.97
2023-09-11T07:13:28.282Z,101428.00
2023-09-11T07:16:00.424Z,101435.75
2023-09-11T07:18:28.667Z,101445.47
2023-09-11T07:20:56.105Z,101450.31
2023-09-11T07:23:25.163Z,101454.81
2023-09-11T07:25:56.063Z,101449.50
2023-09-11T07:28:26.145Z,101451.88
2023-09-11T07:30:53.766Z,101453.34
2023-09-11T07:33:23.326Z,101459.53
2023-09-11T07:35:50.894Z,101457.38
2023-09-11T07:38:18.137Z,101459.44
2023-09-11T07:40:48.513Z,101457.34
2023-09-11T07:43:15.989Z,101464.78
2023-09-11T07:45:44.241Z,101470.81
2023-09-11T07:48:11.643Z,101470.75
2023-09-11T07:50:44.932Z,101480.47
2023-09-11T07:53:12.073Z,101475.06
2023-09-11T07:55:39.172Z,101470.63
2023-09-11T07:58:06.375Z,101471.53
2023-09-11T08:00:33.667Z,101472.28
2023-09-11T08:03:01.298Z,101477.22
2023-09-11T08:05:28.860Z,101481.38
2023-09-11T08:07:56.363Z,101486.44
2023-09-11T08:10:23.673Z,101478.84
2023-09-11T08:12:51.071Z,101481.88
2023-09-11T08:15:18.428Z,101481.63
2023-09-11T08:17:45.674Z,101484.50
2023-09-11T08:20:13.261Z,101490.75
2023-09-11T08:22:43.824Z,101489.91
2023-09-11T08:25:12.225Z,101490.03
2023-09-11T08:27:39.568Z,101490.09
2023-09-11T08:30:07.952Z,101483.56
2023-09-11T08:32:36.066Z,101493.38
2023-09-11T08:35:04.103Z,101492.66
2023-09-11T08:37:32.176Z,101490.97
2023-09-11T08:39:59.856Z,101486.31
2023-09-11T08:42:27.399Z,101504.25
2023-09-11T08:44:54.830Z,101515.28
2023-09-11T08:47:31.764Z,101507.16
2023-09-11T08:50:07.859Z,101496.84
2023-09-11T08:52:37.705Z,101492.19
2023-09-11T08:55:10.898Z,101510.19
2023-09-11T08:57:45.952Z,101501.63
2023-09-11T09:00:16.611Z,101509.84
2023-09-11T09:02:45.105Z,101500.81
2023-09-11T09:05:14.701Z,101497.47
2023-09-11T09:07:44.574Z,101495.91
2023-09-11T09:10:13.087Z,101491.63
2023-09-11T09:12:41.810Z,101492.47
2023-09-11T09:15:09.980Z,101499.16
2023-09-11T09:17:37.368Z,101502.25
2023-09-11T09:20:05.873Z,101501.03
2023-09-11T09:22:33.117Z,101496.97
2023-09-11T09:25:00.464Z,101487.13
2023-09-11T09:27:32.329Z,101489.97
2023-09-11T09:30:02.105Z,101487.00
2023-09-11T09:32:34.845Z,101479.03
2023-09-11T09:35:02.185Z,101471.88
2023-09-11T09:37:30.810Z,101482.75
2023-09-11T09:39:58.233Z,101477.00
2023-09-11T09:42:25.570Z,101476.91
2023-09-11T09:44:55.508Z,101474.63
2023-09-11T09:47:24.008Z,101473.97
2023-09-11T09:49:58.744Z,101471.63
2023-09-11T09:52:34.097Z,101466.13
2023-09-11T09:55:06.334Z,101467.47
2023-09-11T09:57:33.757Z,101466.06
2023-09-11T10:00:03.216Z,101452.38
2023-09-11T10:02:34.232Z,101457.88
2023-09-11T10:05:07.576Z,101455.06
2023-09-11T10:07:39.317Z,101444.25
2023-09-11T10:10:24.863Z,101450.97
2023-09-11T10:13:17.765Z,101444.00
2023-09-11T10:15:46.089Z,101443.22
2023-09-11T10:18:14.507Z,101436.38
2023-09-11T10:20:42.437Z,101432.63
2023-09-11T10:23:10.532Z,101441.22
2023-09-11T10:25:45.507Z,101443.38
2023-09-11T10:28:30.369Z,101440.44
2023-09-11T10:31:21.838Z,101437.53
2023-09-11T10:33:56.481Z,101437.97
2023-09-11T10:36:27.717Z,101428.28
2023-09-11T10:39:00.272Z,101417.97
2023-09-11T10:41:28.415Z,101423.59
2023-09-11T10:43:55.834Z,101430.69
2023-09-11T10:46:23.113Z,101431.25
2023-09-11T10:48:53.539Z,101432.63
2023-09-11T10:51:21.343Z,101429.56
2023-09-11T10:53:50.969Z,101424.72
2023-09-11T10:56:18.705Z,101415.34
2023-09-11T10:58:46.037Z,101413.00
2023-09-11T11:01:20.590Z,101410.25
2023-09-11T11:03:54.488Z,101406.16
2023-09-11T11:06:44.399Z,101400.88
2023-09-11T11:09:37.440Z,101401.59
2023-09-11T11:12:16.047Z,101397.75
2023-09-11T11:14:45.251Z,101386.56
2023-09-11T11:17:18.123Z,101384.03
2023-09-11T11:20:01.506Z,101393.16
2023-09-11T11:22:40.856Z,101390.25
2023-09-11T11:25:12.145Z,101383.25
2023-09-11T11:27:43.719Z,101387.94
2023-09-11T11:30:11.541Z,101394.59
2023-09-11T11:32:42.554Z,101385.34
2023-09-11T11:35:14.690Z,101382.88
2023-09-11T11:37:46.417Z,101381.31
2023-09-11T11:40:15.106Z,101386.56
2023-09-11T11:42:43.016Z,101383.44
2023-09-11T11:45:11.134Z,101384.22
2023-09-11T11:47:38.592Z,101385.56
2023-09-11T11:50:13.815Z,101387.44
2023-09-11T11:52:46.791Z,101381.69
2023-09-11T11:55:22.690Z,101380.19
2023-09-11T11:57:56.471Z,101375.97
2023-09-11T12:00:24.200Z,101380.25
2023-09-11T12:03:12.286Z,101375.03
2023-09-11T12:05:47.692Z,101367.63
2023-09-11T12:08:17.397Z,101363.34
2023-09-11T12:10:52.611Z,101366.97
2023-09-11T12:13:38.788Z,101369.41
2023-09-11T12:16:25.962Z,101354.41
2023-09-11T12:18:59.892Z,101350.19
2023-09-11T12:21:27.672Z,101347.19
2023-09-11T12:23:56.627Z,101347.66
2023-09-11T12:26:24.580Z,101348.28
2023-09-11T12:28:52.071Z,101341.34
2023-09-11T12:31:21.226Z,101337.97
2023-09-11T12:34:01.942Z,101343.38
2023-09-11T12:36:31.066Z,101343.59
2023-09-11T12:39:08.805Z,101347.19
2023-09-11T12:41:37.609Z,101333.03
2023-09-11T12:44:06.569Z,101331.22
2023-09-11T12:46:40.441Z,101326.31
2023-09-11T12:49:09.530Z,101331.47
2023-09-11T12:51:38.623Z,101323.91
2023-09-11T12:54:06.792Z,101321.69
2023-09-11T12:56:36.856Z,101327.19
2023-09-11T12:59:07.177Z,101318.66
2023-09-11T13:01:44.097Z,101316.81
2023-09-11T13:04:14.776Z,101305.59
2023-09-11T13:06:46.433Z,101309.94
2023-09-11T13:09:21.831Z,101304.38
2023-09-11T13:11:51.539Z,101309.03
2023-09-11T13:14:24.786Z,101298.63
2023-09-11T13:16:52.959Z,101302.91
2023-09-11T13:19:20.210Z,101302.19
2023-09-11T13:21:47.470Z,101303.72
2023-09-11T13:24:14.584Z,101312.03
2023-09-11T13:26:43.957Z,101305.28
2023-09-11T13:29:11.552Z,101308.75
2023-09-11T13:31:38.797Z,101308.59
2023-09-11T13:34:06.389Z,101300.00
2023-09-11T13:36:33.743Z,101302.25
2023-09-11T13:39:05.189Z,101303.03
2023-09-11T13:41:34.249Z,101286.78
2023-09-11T13:44:02.632Z,101295.97
2023-09-11T13:46:30.527Z,101293.56
2023-09-11T13:48:57.811Z,101294.41
2023-09-11T13:51:26.680Z,101295.34
2023-09-11T13:53:54.065Z,101302.88
2023-09-11T13:56:23.926Z,101296.97
2023-09-11T13:58:51.283Z,101294.31
2023-09-11T14:01:18.504Z,101295.53
2023-09-11T14:03:47.385Z,101308.09
2023-09-11T14:06:14.819Z,101298.44
2023-09-11T14:08:43.851Z,101299.72
2023-09-11T14:11:11.709Z,101298.69
2023-09-11T14:13:41.580Z,101293.84
2023-09-11T14:16:08.932Z,101297.94
2023-09-11T14:18:37.003Z,101295.94
2023-09-11T14:21:04.725Z,101295.50
2023-09-11T14:23:32.685Z,101291.78
2023-09-11T14:26:00.864Z,101285.91
2023-09-11T14:28:28.038Z,101280.53
2023-09-11T14:30:55.360Z,101280.41
2023-09-11T14:33:22.715Z,101278.66
2023-09-11T14:35:50.198Z,101263.78
2023-09-11T14:38:17.432Z,101267.63
2023-09-11T14:40:44.894Z,101265.91
2023-09-11T14:43:12.328Z,101262.06
2023-09-11T14:45:40.231Z,101266.78
2023-09-11T14:48:07.544Z,101265.41
2023-09-11T14:50:34.916Z,101262.63
2023-09-11T14:53:02.212Z,101260.91
2023-09-11T14:55:30.660Z,101250.22
2023-09-11T14:57:57.880Z,101242.13
2023-09-11T15:00:29.261Z,101243.78
2023-09-11T15:02:56.803Z,101244.81
2023-09-11T15:05:24.597Z,101241.94
2023-09-11T15:07:52.041Z,101239.72
2023-09-11T15:10:20.395Z,101248.75
2023-09-11T15:12:48.544Z,101239.47
2023-09-11T15:15:16.059Z,101235.06
2023-09-11T15:17:45.067Z,101240.53
2023-09-11T15:20:12.811Z,101241.88
2023-09-11T15:22:40.004Z,101237.97
2023-09-11T15:25:07.518Z,101247.06
2023-09-11T15:27:35.093Z,101230.66
2023-09-11T15:30:04.277Z,101233.63
2023-09-11T15:32:33.409Z,101240.78
2023-09-11T15:35:00.814Z,101243.94
2023-09-11T15:37:29.295Z,101238.84
2023-09-11T15:39:58.908Z,101242.66
2023-09-11T15:42:26.699Z,101240.78
2023-09-11T15:44:55.248Z,101237.69
2023-09-11T15:47:22.756Z,101240.72
2023-09-11T15:49:49.970Z,101247.81
2023-09-11T15:52:18.469Z,101243.59
2023-09-11T15:54:46.022Z,101250.78
2023-09-11T15:57:15.630Z,101242.81
2023-09-11T15:59:43.538Z,101253.25
2023-09-11T16:02:10.994Z,101248.19
2023-09-11T16:04:38.569Z,101249.88
2023-09-11T16:07:06.448Z,101239.94
2023-09-11T16:09:33.824Z,101234.44
2023-09-11T16:12:03.285Z,101229.84
2023-09-11T16:14:30.924Z,101216.38
2023-09-11T16:16:59.500Z,101213.69
2023-09-11T16:19:27.655Z,101220.50
2023-09-11T16:21:55.467Z,101208.44
2023-09-11T16:24:27.982Z,101213.31
2023-09-11T16:27:02.356Z,101216.34
2023-09-11T16:29:29.743Z,101222.81
2023-09-11T16:31:56.919Z,101218.00
2023-09-11T16:34:25.740Z,101220.69
2023-09-11T16:36:53.551Z,101224.66
2023-09-11T16:39:23.630Z,101210.06
2023-09-11T16:41:51.194Z,101205.50
2023-09-11T16:44:19.721Z,101194.41
2023-09-11T16:46:50.441Z,101191.13
2023-09-11T16:49:25.478Z,101191.88
2023-09-11T16:51:53.074Z,101191.69
2023-09-11T16:54:20.511Z,101182.53
2023-09-11T16:56:49.712Z,101188.56
2023-09-11T16:59:17.302Z,101186.66
2023-09-11T17:01:48.171Z,101177.09
2023-09-11T17:04:17.948Z,101185.75
2023-09-11T17:06:47.070Z,101194.16
2023-09-11T17:09:15.108Z,101189.53
2023-09-11T17:11:42.412Z,101188.84
2023-09-11T17:14:11.151Z,101186.41
2023-09-11T17:16:38.915Z,101190.91
2023-09-11T17:19:06.268Z,101196.31
2023-09-11T17:21:33.663Z,101199.59
2023-09-11T17:24:03.600Z,101194.72
2023-09-11T17:26:31.249Z,101193.63
2023-09-11T17:28:58.777Z,101203.09
2023-09-11T17:31:26.053Z,101211.69
2023-09-11T17:33:53.648Z,101201.94
2023-09-11T17:36:23.117Z,101208.25
2023-09-11T17:38:51.505Z,101208.47
2023-09-11T17:41:19.021Z,101209.50
2023-09-11T17:43:46.253Z,101210.91
2023-09-11T17:46:16.435Z,101214.34
2023-09-11T17:48:44.409Z,101205.50
2023-09-11T17:51:12.795Z,101206.25
2023-09-11T17:53:40.379Z,101210.41
2023-09-11T17:56:07.598Z,101211.28
2023-09-11T17:58:34.769Z,101210.16
2023-09-11T18:01:02.004Z,101202.19
2023-09-11T18:03:30.323Z,101209.31
2023-09-11T18:06:00.884Z,101216.16
2023-09-11T18:08:32.049Z,101210.47
2023-09-11T18:10:59.674Z,101210.72
2023-09-11T18:13:28.195Z,101212.63
2023-09-11T18:15:56.575Z,101217.50
2023-09-11T18:18:25.633Z,101228.16
2023-09-11T18:20:53.694Z,101219.38
2023-09-11T18:23:21.389Z,101224.34
2023-09-11T18:25:49.490Z,101225.78
2023-09-11T18:28:17.126Z,101223.00
2023-09-11T18:30:46.378Z,101226.84
2023-09-11T18:33:13.804Z,101230.59
2023-09-11T18:35:41.309Z,101239.72
2023-09-11T18:38:08.619Z,101231.69
2023-09-11T18:40:37.278Z,101245.00
2023-09-11T18:43:06.016Z,101241.59
2023-09-11T18:45:33.452Z,101234.03
2023-09-11T18:48:01.084Z,101241.38
2023-09-11T18:50:34.110Z,101240.34
2023-09-11T18:53:01.769Z,101246.84
2023-09-11T18:55:30.146Z,101251.00
2023-09-11T18:57:57.790Z,101250.78
2023-09-11T19:00:25.130Z,101253.38
2023-09-11T19:02:52.674Z,101259.94
2023-09-11T19:05:22.199Z,101263.34
2023-09-11T19:07:52.041Z,101263.16
2023-09-11T19:10:19.565Z,101259.91
2023-09-11T19:12:46.748Z,101260.03
2023-09-11T19:15:14.228Z,101262.31
2023-09-11T19:17:42.261Z,101261.22
2023-09-11T19:20:10.763Z,101257.78
2023-09-11T19:22:40.773Z,101249.78
2023-09-11T19:25:11.209Z,101261.56
2023-09-11T19:27:40.071Z,101269.19
2023-09-11T19:30:08.234Z,101276.13
2023-09-11T19:32:37.624Z,101267.34
2023-09-11T19:35:06.663Z,101282.16
2023-09-11T19:37:37.286Z,101270.22
2023-09-11T19:40:05.649Z,101272.38
2023-09-11T19:42:33.239Z,101278.25
2023-09-11T19:45:00.900Z,101286.38
2023-09-11T19:47:32.926Z,101279.03
2023-09-11T19:50:02.688Z,101291.94
2023-09-11T19:52:29.967Z,101299.13
2023-09-11T19:54:59.729Z,101293.53
2023-09-11T19:57:27.892Z,101295.66
2023-09-11T19:59:56.014Z,101296.63
2023-09-11T20:02:23.443Z,101316.25
2023-09-11T20:04:50.761Z,101306.19
2023-09-11T20:07:18.672Z,101309.72
2023-09-11T20:09:46.073Z,101310.88
2023-09-11T20:12:16.881Z,101313.94
2023-09-11T20:14:44.285Z,101305.31
2023-09-11T20:17:11.445Z,101303.84
2023-09-11T20:19:39.609Z,101306.06
2023-09-11T20:22:09.758Z,101304.41
2023-09-11T20:24:37.188Z,101300.06
2023-09-11T20:27:04.798Z,101294.56
2023-09-11T20:29:33.670Z,101295.59
2023-09-11T20:32:01.270Z,101291.94
2023-09-11T20:34:29.367Z,101291.88
2023-09-11T20:36:56.720Z,101285.97
2023-09-11T20:39:27.870Z,101285.41
2023-09-11T20:41:55.287Z,101287.66
2023-09-11T20:44:22.584Z,101291.97
2023-09-11T20:46:50.274Z,101290.31
2023-09-11T20:49:17.505Z,101289.97
2023-09-11T20:51:44.752Z,101286.25
2023-09-11T20:54:13.180Z,101280.19
2023-09-11T20:56:41.955Z,101283.06
2023-09-11T20:59:09.383Z,101282.84
2023-09-11T21:01:36.707Z,101290.75
2023-09-11T21:04:07.495Z,101281.09
2023-09-11T21:06:39.769Z,101274.31
2023-09-11T21:09:07.060Z,101274.00
2023-09-11T21:11:34.763Z,101271.38
2023-09-11T21:14:02.700Z,101276.72
2023-09-11T21:16:35.721Z,101267.78
2023-09-11T21:19:04.119Z,101255.28
2023-09-11T21:21:33.224Z,101256.50
2023-09-11T21:24:00.609Z,101259.91
2023-09-11T21:26:29.108Z,101257.06
2023-09-11T21:28:56.512Z,101265.91
2023-09-11T21:31:23.850Z,101258.00
2023-09-11T21:33:52.507Z,101258.06
2023-09-11T21:36:19.819Z,101254.69
2023-09-11T21:38:47.246Z,101250.00
2023-09-11T21:41:16.530Z,101251.63
2023-09-11T21:43:45.366Z,101258.69
2023-09-11T21:46:13.442Z,101254.28
2023-09-11T21:48:43.734Z,101250.56
2023-09-11T21:51:11.295Z,101247.84
2023-09-11T21:53:40.923Z,101254.03
2023-09-11T21:56:08.534Z,101245.97
2023-09-11T21:58:36.924Z,101245.91
2023-09-11T22:01:04.601Z,101245.97
2023-09-11T22:03:31.869Z,101245.19
2023-09-11T22:05:59.253Z,101252.31
2023-09-11T22:08:26.604Z,101247.09
2023-09-11T22:10:54.806Z,101252.59
2023-09-11T22:13:23.926Z,101245.53
2023-09-11T22:15:51.432Z,101243.75
2023-09-11T22:18:20.552Z,101251.72
2023-09-11T22:20:48.041Z,101247.28
2023-09-11T22:23:16.305Z,101244.63
2023-09-11T22:25:43.446Z,101242.81
2023-09-11T22:28:13.593Z,101244.69
2023-09-11T22:30:41.057Z,101234.88
2023-09-11T22:33:08.445Z,101233.28
2023-09-11T22:35:48.948Z,101228.41
2023-09-11T22:38:24.776Z,101229.41
2023-09-11T22:40:52.017Z,101234.81
2023-09-11T22:43:19.307Z,101230.47
2023-09-11T22:45:46.514Z,101224.25
2023-09-11T22:48:19.360Z,101229.16
2023-09-11T22:50:46.883Z,101221.81
2023-09-11T22:53:14.125Z,101222.63
2023-09-11T22:55:41.421Z,101223.50
2023-09-11T22:58:10.238Z,101221.72
2023-09-11T23:00:41.907Z,101221.78
2023-09-11T23:03:11.454Z,101224.38
2023-09-11T23:05:40.214Z,101226.94
2023-09-11T23:08:07.482Z,101226.94
2023-09-11T23:10:34.869Z,101222.63
2023-09-11T23:13:02.146Z,101225.56
2023-09-11T23:15:32.824Z,101222.25
2023-09-11T23:18:00.249Z,101216.38
2023-09-11T23:20:27.610Z,101223.47
2023-09-11T23:22:54.888Z,101224.28
2023-09-11T23:25:22.137Z,101225.13
2023-09-11T23:27:49.472Z,101207.47
2023-09-11T23:30:17.281Z,101213.66
2023-09-11T23:32:44.683Z,101212.72
2023-09-11T23:35:12.049Z,101217.09
2023-09-11T23:37:39.303Z,101208.13
2023-09-11T23:40:10.856Z,101214.38
2023-09-11T23:42:38.349Z,101213.53
2023-09-11T23:45:06.818Z,101214.34
2023-09-11T23:47:34.308Z,101219.13
2023-09-11T23:50:01.707Z,101216.53
2023-09-11T23:52:29.501Z,101208.31
2023-09-11T23:54:56.747Z,101213.56
2023-09-11T23:57:23.947Z,101209.94
2023-09-11T23:59:51.119Z,101211.66
